sensor_id;sensor_type;location;lat;lon;timestamp;pressure;altitude;pressure_sealevel;temperature;humidity
74633;BME280;63139;52.018;8.552;2023-05-29T00:00:29;101134.84;;;10.98;83.28
74633;BME280;63139;52.018;8.552;2023-05-29T00:02:58;101131.00;;;10.93;83.21
74633;BME280;63139;52.018;8.552;2023-05-29T00:05:26;101124.88;;;10.92;82.56
74633;BME280;63139;52.018;8.552;2023-05-29T00:07:55;101128.00;;;10.87;82.61
74633;BME280;63139;52.018;8.552;2023-05-29T00:10:23;101129.13;;;10.85;82.47
74633;BME280;63139;52.018;8.552;2023-05-29T00:12:50;101131.25;;;10.81;82.51
74633;BME280;63139;52.018;8.552;2023-05-29T00:15:18;101135.19;;;10.77;82.79
74633;BME280;63139;52.018;8.552;2023-05-29T00:17:46;101152.22;;;10.75;82.42
74633;BME280;63139;52.018;8.552;2023-05-29T00:20:15;101151.00;;;10.69;82.88
74633;BME280;63139;52.018;8.552;2023-05-29T00:22:44;101141.41;;;10.68;82.25
74633;BME280;63139;52.018;8.552;2023-05-29T00:25:14;101148.00;;;10.64;82.42
74633;BME280;63139;52.018;8.552;2023-05-29T00:27:42;101145.63;;;10.61;82.18
74633;BME280;63139;52.018;8.552;2023-05-29T00:30:11;101152.22;;;10.57;81.41
74633;BME280;63139;52.018;8.552;2023-05-29T00:32:39;101151.88;;;10.52;81.55
74633;BME280;63139;52.018;8.552;2023-05-29T00:35:08;101156.47;;;10.50;81.71
74633;BME280;63139;52.018;8.552;2023-05-29T00:37:36;101167.19;;;10.48;81.55
74633;BME280;63139;52.018;8.552;2023-05-29T00:40:05;101158.44;;;10.48;81.42
74633;BME280;63139;52.018;8.552;2023-05-29T00:42:35;101161.34;;;10.45;81.10
74633;BME280;63139;52.018;8.552;2023-05-29T00:45:04;101168.94;;;10.40;81.07
74633;BME280;63139;52.018;8.552;2023-05-29T00:47:31;101169.25;;;10.37;81.10
74633;BME280;63139;52.018;8.552;2023-05-29T00:49:59;101180.25;;;10.32;81.41
74633;BME280;63139;52.018;8.552;2023-05-29T00:52:29;101173.75;;;10.27;81.51
74633;BME280;63139;52.018;8.552;2023-05-29T00:54:57;101171.41;;;10.24;81.12
74633;BME280;63139;52.018;8.552;2023-05-29T00:57:27;101170.03;;;10.20;81.34
74633;BME280;63139;52.018;8.552;2023-05-29T00:59:58;101169.34;;;10.18;81.49
74633;BME280;63139;52.018;8.552;2023-05-29T01:02:27;101177.84;;;10.11;81.22
74633;BME280;63139;52.018;8.552;2023-05-29T01:04:56;101180.13;;;10.06;81.97
74633;BME280;63139;52.018;8.552;2023-05-29T01:07:24;101180.13;;;10.06;81.78
74633;BME280;63139;52.018;8.552;2023-05-29T01:09:53;101176.91;;;10.03;81.43
74633;BME280;63139;52.018;8.552;2023-05-29T01:12:30;101173.19;;;9.96;81.93
74633;BME280;63139;52.018;8.552;2023-05-29T01:15:16;101174.31;;;9.93;82.37
74633;BME280;63139;52.018;8.552;2023-05-29T01:17:54;101176.44;;;9.90;81.83
74633;BME280;63139;52.018;8.552;2023-05-29T01:20:33;101178.53;;;9.86;82.17
74633;BME280;63139;52.018;8.552;2023-05-29T01:23:12;101180.66;;;9.83;82.16
74633;BME280;63139;52.018;8.552;2023-05-29T01:25:58;101174.81;;;9.79;82.46
74633;BME280;63139;52.018;8.552;2023-05-29T01:28:33;101182.22;;;9.76;81.92
74633;BME280;63139;52.018;8.552;2023-05-29T01:31:05;101181.66;;;9.72;81.96
74633;BME280;63139;52.018;8.552;2023-05-29T01:33:38;101182.09;;;9.67;81.89
74633;BME280;63139;52.018;8.552;2023-05-29T01:36:07;101192.13;;;9.64;82.09
74633;BME280;63139;52.018;8.552;2023-05-29T01:38:35;101186.28;;;9.60;82.28
74633;BME280;63139;52.018;8.552;2023-05-29T01:41:03;101186.56;;;9.57;82.37
74633;BME280;63139;52.018;8.552;2023-05-29T01:43:33;101185.06;;;9.55;82.64
74633;BME280;63139;52.018;8.552;2023-05-29T01:46:01;101189.66;;;9.53;82.47
74633;BME280;63139;52.018;8.552;2023-05-29T01:48:30;101185.47;;;9.50;82.69
74633;BME280;63139;52.018;8.552;2023-05-29T01:50:57;101182.31;;;9.47;82.68
74633;BME280;63139;52.018;8.552;2023-05-29T01:53:25;101182.31;;;9.47;83.19
74633;BME280;63139;52.018;8.552;2023-05-29T01:55:53;101191.47;;;9.43;82.76
74633;BME280;63139;52.018;8.552;2023-05-29T01:58:21;101192.47;;;9.42;82.83
74633;BME280;63139;52.018;8.552;2023-05-29T02:00:52;101192.75;;;9.39;82.63
74633;BME280;63139;52.018;8.552;2023-05-29T02:03:20;101195.69;;;9.35;82.60
74633;BME280;63139;52.018;8.552;2023-05-29T02:05:48;101197.66;;;9.33;82.63
74633;BME280;63139;52.018;8.552;2023-05-29T02:08:15;101195.28;;;9.30;82.73
74633;BME280;63139;52.018;8.552;2023-05-29T02:10:43;101199.16;;;9.26;83.30
74633;BME280;63139;52.018;8.552;2023-05-29T02:13:11;101197.66;;;9.24;82.92
74633;BME280;63139;52.018;8.552;2023-05-29T02:15:39;101198.75;;;9.21;83.07
74633;BME280;63139;52.018;8.552;2023-05-29T02:18:11;101199.72;;;9.20;82.82
74633;BME280;63139;52.018;8.552;2023-05-29T02:20:39;101197.22;;;9.19;82.67
74633;BME280;63139;52.018;8.552;2023-05-29T02:23:08;101204.47;;;9.17;83.08
74633;BME280;63139;52.018;8.552;2023-05-29T02:25:36;101209.91;;;9.15;83.57
74633;BME280;63139;52.018;8.552;2023-05-29T02:28:05;101208.09;;;9.16;83.69
74633;BME280;63139;52.018;8.552;2023-05-29T02:30:34;101206.56;;;9.13;83.32
74633;BME280;63139;52.018;8.552;2023-05-29T02:33:02;101212.69;;;9.14;83.50
74633;BME280;63139;52.018;8.552;2023-05-29T02:35:34;101211.84;;;9.13;82.90
74633;BME280;63139;52.018;8.552;2023-05-29T02:38:03;101212.97;;;9.11;82.99
74633;BME280;63139;52.018;8.552;2023-05-29T02:40:31;101212.28;;;9.09;83.27
74633;BME280;63139;52.018;8.552;2023-05-29T02:42:58;101213.25;;;9.08;83.07
74633;BME280;63139;52.018;8.552;2023-05-29T02:45:26;101214.22;;;9.07;83.27
74633;BME280;63139;52.018;8.552;2023-05-29T02:47:54;101202.94;;;9.05;83.38
74633;BME280;63139;52.018;8.552;2023-05-29T02:50:22;101213.81;;;9.02;83.50
74633;BME280;63139;52.018;8.552;2023-05-29T02:52:51;101212.28;;;8.99;84.03
74633;BME280;63139;52.018;8.552;2023-05-29T02:55:19;101217.56;;;8.99;84.00
74633;BME280;63139;52.018;8.552;2023-05-29T02:57:47;101218.38;;;9.00;83.91
74633;BME280;63139;52.018;8.552;2023-05-29T03:00:15;101227.16;;;9.00;83.81
74633;BME280;63139;52.018;8.552;2023-05-29T03:02:44;101218.53;;;8.98;83.64
74633;BME280;63139;52.018;8.552;2023-05-29T03:05:12;101213.41;;;8.97;83.97
74633;BME280;63139;52.018;8.552;2023-05-29T03:07:40;101211.88;;;8.94;84.44
74633;BME280;63139;52.018;8.552;2023-05-29T03:10:09;101209.09;;;8.95;84.06
74633;BME280;63139;52.018;8.552;2023-05-29T03:12:37;101206.44;;;8.95;84.03
74633;BME280;63139;52.018;8.552;2023-05-29T03:15:06;101211.03;;;8.93;84.13
74633;BME280;63139;52.018;8.552;2023-05-29T03:17:34;101210.06;;;8.94;84.39
74633;BME280;63139;52.018;8.552;2023-05-29T03:20:08;101209.22;;;8.94;84.07
74633;BME280;63139;52.018;8.552;2023-05-29T03:22:37;101213.53;;;8.95;84.68
74633;BME280;63139;52.018;8.552;2023-05-29T03:25:05;101218.69;;;8.97;84.29
74633;BME280;63139;52.018;8.552;2023-05-29T03:27:35;101213.09;;;9.00;84.40
74633;BME280;63139;52.018;8.552;2023-05-29T03:30:12;101220.75;;;9.03;84.59
74633;BME280;63139;52.018;8.552;2023-05-29T03:32:41;101226.59;;;9.06;84.92
74633;BME280;63139;52.018;8.552;2023-05-29T03:35:09;101217.00;;;9.15;84.21
74633;BME280;63139;52.018;8.552;2023-05-29T03:37:39;101217.81;;;9.25;83.72
74633;BME280;63139;52.018;8.552;2023-05-29T03:40:08;101209.84;;;9.34;83.45
74633;BME280;63139;52.018;8.552;2023-05-29T03:42:37;101227.50;;;9.44;83.31
74633;BME280;63139;52.018;8.552;2023-05-29T03:45:06;101225.69;;;9.54;82.90
74633;BME280;63139;52.018;8.552;2023-05-29T03:47:37;101217.56;;;9.65;82.23
74633;BME280;63139;52.018;8.552;2023-05-29T03:50:06;101219.38;;;9.74;81.85
74633;BME280;63139;52.018;8.552;2023-05-29T03:52:35;101220.84;;;9.86;81.31
74633;BME280;63139;52.018;8.552;2023-05-29T03:55:08;101227.53;;;9.90;80.98
74633;BME280;63139;52.018;8.552;2023-05-29T03:57:43;101229.72;;;9.95;81.02
74633;BME280;63139;52.018;8.552;2023-05-29T04:00:13;101238.31;;;10.06;80.33
74633;BME280;63139;52.018;8.552;2023-05-29T04:02:45;101237.41;;;10.16;79.76
74633;BME280;63139;52.018;8.552;2023-05-29T04:05:13;101248.16;;;10.24;79.13
74633;BME280;63139;52.018;8.552;2023-05-29T04:07:41;101240.75;;;10.27;78.95
74633;BME280;63139;52.018;8.552;2023-05-29T04:10:09;101236.31;;;10.28;78.70
74633;BME280;63139;52.018;8.552;2023-05-29T04:12:37;101241.97;;;10.33;78.51
74633;BME280;63139;52.018;8.552;2023-05-29T04:15:08;101244.63;;;10.33;78.48
74633;BME280;63139;52.018;8.552;2023-05-29T04:17:36;101249.19;;;10.40;78.15
74633;BME280;63139;52.018;8.552;2023-05-29T04:20:05;101256.16;;;10.41;78.03
74633;BME280;63139;52.018;8.552;2023-05-29T04:22:35;101262.22;;;10.52;77.67
74633;BME280;63139;52.018;8.552;2023-05-29T04:25:04;101259.59;;;10.52;77.51
74633;BME280;63139;52.018;8.552;2023-05-29T04:27:32;101259.66;;;10.60;77.18
74633;BME280;63139;52.018;8.552;2023-05-29T04:30:08;101261.56;;;10.85;76.29
74633;BME280;63139;52.018;8.552;2023-05-29T04:32:41;101263.19;;;10.96;75.72
74633;BME280;63139;52.018;8.552;2023-05-29T04:35:09;101266.88;;;10.85;75.77
74633;BME280;63139;52.018;8.552;2023-05-29T04:37:42;101268.19;;;10.81;75.86
74633;BME280;63139;52.018;8.552;2023-05-29T04:40:11;101268.41;;;10.87;75.25
74633;BME280;63139;52.018;8.552;2023-05-29T04:42:42;101275.06;;;10.92;75.24
74633;BME280;63139;52.018;8.552;2023-05-29T04:45:12;101266.19;;;11.01;75.07
74633;BME280;63139;52.018;8.552;2023-05-29T04:47:40;101272.63;;;10.98;74.92
74633;BME280;63139;52.018;8.552;2023-05-29T04:50:13;101278.31;;;11.03;74.41
74633;BME280;63139;52.018;8.552;2023-05-29T04:52:42;101279.31;;;11.02;74.21
74633;BME280;63139;52.018;8.552;2023-05-29T04:55:10;101274.66;;;11.22;73.61
74633;BME280;63139;52.018;8.552;2023-05-29T04:57:38;101281.88;;;11.29;73.32
74633;BME280;63139;52.018;8.552;2023-05-29T05:00:09;101272.56;;;11.25;73.00
74633;BME280;63139;52.018;8.552;2023-05-29T05:02:43;101261.56;;;11.20;73.01
74633;BME280;63139;52.018;8.552;2023-05-29T05:05:12;101265.66;;;11.33;72.93
74633;BME280;63139;52.018;8.552;2023-05-29T05:07:40;101269.97;;;11.34;72.61
74633;BME280;63139;52.018;8.552;2023-05-29T05:10:09;101273.00;;;11.39;72.38
74633;BME280;63139;52.018;8.552;2023-05-29T05:12:37;101274.25;;;11.52;72.05
74633;BME280;63139;52.018;8.552;2023-05-29T05:15:06;101277.38;;;11.74;71.62
74633;BME280;63139;52.018;8.552;2023-05-29T05:17:34;101274.19;;;12.14;70.16
74633;BME280;63139;52.018;8.552;2023-05-29T05:20:04;101269.97;;;12.37;69.44
74633;BME280;63139;52.018;8.552;2023-05-29T05:22:33;101272.50;;;12.55;68.28
74633;BME280;63139;52.018;8.552;2023-05-29T05:25:01;101275.91;;;12.81;67.40
74633;BME280;63139;52.018;8.552;2023-05-29T05:27:30;101275.25;;;12.87;67.00
74633;BME280;63139;52.018;8.552;2023-05-29T05:29:58;101274.09;;;12.98;66.43
74633;BME280;63139;52.018;8.552;2023-05-29T05:32:26;101283.41;;;12.86;65.45
74633;BME280;63139;52.018;8.552;2023-05-29T05:35:00;101278.72;;;12.79;66.10
74633;BME280;63139;52.018;8.552;2023-05-29T05:37:31;101275.78;;;13.07;66.03
74633;BME280;63139;52.018;8.552;2023-05-29T05:39:59;101282.47;;;13.27;65.34
74633;BME280;63139;52.018;8.552;2023-05-29T05:42:29;101287.78;;;13.35;65.01
74633;BME280;63139;52.018;8.552;2023-05-29T05:45:02;101285.81;;;13.37;64.47
74633;BME280;63139;52.018;8.552;2023-05-29T05:47:30;101280.50;;;13.37;64.55
74633;BME280;63139;52.018;8.552;2023-05-29T05:49:58;101281.63;;;13.51;63.93
74633;BME280;63139;52.018;8.552;2023-05-29T05:52:26;101278.81;;;13.52;64.02
74633;BME280;63139;52.018;8.552;2023-05-29T05:54:58;101280.47;;;13.62;63.31
74633;BME280;63139;52.018;8.552;2023-05-29T05:57:26;101282.63;;;13.66;63.56
74633;BME280;63139;52.018;8.552;2023-05-29T05:59:55;101288.78;;;13.50;63.71
74633;BME280;63139;52.018;8.552;2023-05-29T06:02:24;101289.63;;;13.59;63.80
74633;BME280;63139;52.018;8.552;2023-05-29T06:04:52;101287.13;;;13.57;62.99
74633;BME280;63139;52.018;8.552;2023-05-29T06:07:21;101285.97;;;13.52;63.24
74633;BME280;63139;52.018;8.552;2023-05-29T06:09:49;101287.63;;;13.37;63.07
74633;BME280;63139;52.018;8.552;2023-05-29T06:12:18;101277.81;;;13.29;63.79
74633;BME280;63139;52.018;8.552;2023-05-29T06:14:56;101286.47;;;13.39;63.34
74633;BME280;63139;52.018;8.552;2023-05-29T06:17:23;101293.94;;;13.28;63.00
74633;BME280;63139;52.018;8.552;2023-05-29T06:19:52;101295.44;;;13.22;63.45
74633;BME280;63139;52.018;8.552;2023-05-29T06:22:20;101300.25;;;13.27;63.54
74633;BME280;63139;52.018;8.552;2023-05-29T06:24:48;101291.94;;;13.13;63.83
74633;BME280;63139;52.018;8.552;2023-05-29T06:27:15;101296.13;;;13.24;63.40
74633;BME280;63139;52.018;8.552;2023-05-29T06:29:45;101300.22;;;13.10;63.44
74633;BME280;63139;52.018;8.552;2023-05-29T06:32:13;101306.75;;;13.24;63.64
74633;BME280;63139;52.018;8.552;2023-05-29T06:34:42;101303.41;;;13.14;63.73
74633;BME280;63139;52.018;8.552;2023-05-29T06:37:10;101305.38;;;13.04;63.86
74633;BME280;63139;52.018;8.552;2023-05-29T06:39:38;101304.09;;;13.16;63.56
74633;BME280;63139;52.018;8.552;2023-05-29T06:42:08;101312.53;;;13.19;63.58
74633;BME280;63139;52.018;8.552;2023-05-29T06:44:41;101317.03;;;13.19;63.51
74633;BME280;63139;52.018;8.552;2023-05-29T06:47:10;101325.28;;;13.00;63.61
74633;BME280;63139;52.018;8.552;2023-05-29T06:49:38;101318.97;;;12.93;63.99
74633;BME280;63139;52.018;8.552;2023-05-29T06:52:06;101317.31;;;13.08;63.75
74633;BME280;63139;52.018;8.552;2023-05-29T06:54:54;101326.53;;;13.21;63.30
74633;BME280;63139;52.018;8.552;2023-05-29T06:57:23;101323.84;;;13.13;62.86
74633;BME280;63139;52.018;8.552;2023-05-29T06:59:51;101328.69;;;13.26;62.80
74633;BME280;63139;52.018;8.552;2023-05-29T07:02:20;101327.38;;;13.38;62.27
74633;BME280;63139;52.018;8.552;2023-05-29T07:04:52;101329.19;;;13.38;62.26
74633;BME280;63139;52.018;8.552;2023-05-29T07:07:20;101333.34;;;13.32;62.46
74633;BME280;63139;52.018;8.552;2023-05-29T07:09:47;101330.72;;;13.48;62.31
74633;BME280;63139;52.018;8.552;2023-05-29T07:12:16;101341.50;;;13.39;62.21
74633;BME280;63139;52.018;8.552;2023-05-29T07:14:43;101338.34;;;13.51;61.75
74633;BME280;63139;52.018;8.552;2023-05-29T07:17:15;101334.53;;;13.70;61.64
74633;BME280;63139;52.018;8.552;2023-05-29T07:19:44;101329.53;;;13.75;61.06
74633;BME280;63139;52.018;8.552;2023-05-29T07:22:13;101330.19;;;13.77;61.32
74633;BME280;63139;52.018;8.552;2023-05-29T07:24:41;101336.69;;;13.83;61.08
74633;BME280;63139;52.018;8.552;2023-05-29T07:27:11;101341.50;;;13.87;60.58
74633;BME280;63139;52.018;8.552;2023-05-29T07:29:39;101343.16;;;13.96;60.02
74633;BME280;63139;52.018;8.552;2023-05-29T07:32:08;101338.66;;;14.05;59.84
74633;BME280;63139;52.018;8.552;2023-05-29T07:34:37;101345.50;;;13.99;59.81
74633;BME280;63139;52.018;8.552;2023-05-29T07:37:06;101338.28;;;14.16;59.28
74633;BME280;63139;52.018;8.552;2023-05-29T07:39:36;101347.41;;;14.30;59.78
74633;BME280;63139;52.018;8.552;2023-05-29T07:42:14;101356.72;;;14.42;58.95
74633;BME280;63139;52.018;8.552;2023-05-29T07:44:42;101342.28;;;14.20;58.94
74633;BME280;63139;52.018;8.552;2023-05-29T07:47:12;101340.78;;;14.18;58.95
74633;BME280;63139;52.018;8.552;2023-05-29T07:49:43;101346.06;;;14.34;58.99
74633;BME280;63139;52.018;8.552;2023-05-29T07:52:13;101346.75;;;14.28;58.26
74633;BME280;63139;52.018;8.552;2023-05-29T07:54:41;101344.38;;;14.49;58.07
74633;BME280;63139;52.018;8.552;2023-05-29T07:57:11;101337.91;;;14.44;57.94
74633;BME280;63139;52.018;8.552;2023-05-29T07:59:41;101351.53;;;14.49;58.26
74633;BME280;63139;52.018;8.552;2023-05-29T08:02:10;101347.50;;;14.53;58.28
74633;BME280;63139;52.018;8.552;2023-05-29T08:04:48;101350.69;;;14.56;57.38
74633;BME280;63139;52.018;8.552;2023-05-29T08:07:18;101343.66;;;14.63;56.83
74633;BME280;63139;52.018;8.552;2023-05-29T08:09:48;101351.81;;;14.62;56.87
74633;BME280;63139;52.018;8.552;2023-05-29T08:12:16;101358.38;;;14.82;55.98
74633;BME280;63139;52.018;8.552;2023-05-29T08:14:44;101357.69;;;14.96;55.78
74633;BME280;63139;52.018;8.552;2023-05-29T08:17:11;101350.84;;;14.94;55.50
74633;BME280;63139;52.018;8.552;2023-05-29T08:19:39;101355.59;;;15.06;55.66
74633;BME280;63139;52.018;8.552;2023-05-29T08:22:07;101357.56;;;15.35;55.65
74633;BME280;63139;52.018;8.552;2023-05-29T08:24:36;101354.66;;;15.22;55.65
74633;BME280;63139;52.018;8.552;2023-05-29T08:27:04;101351.06;;;15.38;55.65
74633;BME280;63139;52.018;8.552;2023-05-29T08:29:32;101353.06;;;15.36;55.32
74633;BME280;63139;52.018;8.552;2023-05-29T08:32:00;101345.84;;;15.44;54.83
74633;BME280;63139;52.018;8.552;2023-05-29T08:34:28;101346.69;;;15.68;55.01
74633;BME280;63139;52.018;8.552;2023-05-29T08:36:56;101350.03;;;15.70;54.77
74633;BME280;63139;52.018;8.552;2023-05-29T08:39:24;101354.75;;;15.82;54.50
74633;BME280;63139;52.018;8.552;2023-05-29T08:41:59;101357.50;;;15.89;53.70
74633;BME280;63139;52.018;8.552;2023-05-29T08:44:30;101351.06;;;15.83;53.75
74633;BME280;63139;52.018;8.552;2023-05-29T08:47:02;101352.66;;;15.93;53.53
74633;BME280;63139;52.018;8.552;2023-05-29T08:49:42;101359.09;;;15.98;52.46
74633;BME280;63139;52.018;8.552;2023-05-29T08:52:15;101353.28;;;15.95;52.86
74633;BME280;63139;52.018;8.552;2023-05-29T08:54:44;101369.06;;;16.04;53.37
74633;BME280;63139;52.018;8.552;2023-05-29T08:57:13;101358.13;;;16.14;53.90
74633;BME280;63139;52.018;8.552;2023-05-29T08:59:43;101356.56;;;16.19;53.25
74633;BME280;63139;52.018;8.552;2023-05-29T09:02:11;101357.66;;;16.25;53.37
74633;BME280;63139;52.018;8.552;2023-05-29T09:04:41;101359.56;;;16.16;52.33
74633;BME280;63139;52.018;8.552;2023-05-29T09:07:11;101356.44;;;15.98;52.27
74633;BME280;63139;52.018;8.552;2023-05-29T09:09:39;101358.66;;;16.09;52.54
74633;BME280;63139;52.018;8.552;2023-05-29T09:12:07;101368.47;;;15.94;53.06
74633;BME280;63139;52.018;8.552;2023-05-29T09:14:38;101354.06;;;16.18;52.98
74633;BME280;63139;52.018;8.552;2023-05-29T09:17:07;101361.31;;;16.09;53.04
74633;BME280;63139;52.018;8.552;2023-05-29T09:19:36;101357.28;;;16.13;52.80
74633;BME280;63139;52.018;8.552;2023-05-29T09:22:05;101372.84;;;16.24;52.59
74633;BME280;63139;52.018;8.552;2023-05-29T09:24:35;101360.69;;;16.07;52.55
74633;BME280;63139;52.018;8.552;2023-05-29T09:27:04;101381.88;;;16.09;53.17
74633;BME280;63139;52.018;8.552;2023-05-29T09:29:36;101378.63;;;15.99;53.15
74633;BME280;63139;52.018;8.552;2023-05-29T09:32:08;101370.34;;;16.08;52.55
74633;BME280;63139;52.018;8.552;2023-05-29T09:34:36;101377.19;;;16.11;52.49
74633;BME280;63139;52.018;8.552;2023-05-29T09:37:05;101381.44;;;16.20;52.29
74633;BME280;63139;52.018;8.552;2023-05-29T09:39:44;101368.78;;;15.99;52.56
74633;BME280;63139;52.018;8.552;2023-05-29T09:42:13;101357.81;;;16.09;52.79
74633;BME280;63139;52.018;8.552;2023-05-29T09:44:45;101374.50;;;16.11;53.04
74633;BME280;63139;52.018;8.552;2023-05-29T09:47:16;101379.88;;;16.25;52.55
74633;BME280;63139;52.018;8.552;2023-05-29T09:49:45;101368.66;;;16.30;53.21
74633;BME280;63139;52.018;8.552;2023-05-29T09:52:14;101370.84;;;16.41;52.78
74633;BME280;63139;52.018;8.552;2023-05-29T09:54:43;101359.31;;;16.55;53.04
74633;BME280;63139;52.018;8.552;2023-05-29T09:57:13;101359.34;;;16.70;52.29
74633;BME280;63139;52.018;8.552;2023-05-29T09:59:43;101351.56;;;16.75;51.33
74633;BME280;63139;52.018;8.552;2023-05-29T10:02:11;101352.78;;;16.87;51.79
74633;BME280;63139;52.018;8.552;2023-05-29T10:04:41;101355.97;;;16.97;51.65
74633;BME280;63139;52.018;8.552;2023-05-29T10:07:15;101355.88;;;16.91;51.25
74633;BME280;63139;52.018;8.552;2023-05-29T10:09:49;101346.56;;;17.01;50.98
74633;BME280;63139;52.018;8.552;2023-05-29T10:12:20;101349.13;;;17.10;51.04
74633;BME280;63139;52.018;8.552;2023-05-29T10:14:49;101348.31;;;16.94;50.01
74633;BME280;63139;52.018;8.552;2023-05-29T10:17:21;101335.16;;;17.14;50.75
74633;BME280;63139;52.018;8.552;2023-05-29T10:19:53;101336.69;;;17.23;49.97
74633;BME280;63139;52.018;8.552;2023-05-29T10:22:23;101338.09;;;17.19;49.62
74633;BME280;63139;52.018;8.552;2023-05-29T10:24:52;101342.38;;;17.35;50.28
74633;BME280;63139;52.018;8.552;2023-05-29T10:27:20;101339.00;;;17.48;50.50
74633;BME280;63139;52.018;8.552;2023-05-29T10:29:50;101346.16;;;17.40;49.54
74633;BME280;63139;52.018;8.552;2023-05-29T10:32:23;101327.41;;;17.40;49.94
74633;BME280;63139;52.018;8.552;2023-05-29T10:35:05;101333.84;;;17.46;49.33
74633;BME280;63139;52.018;8.552;2023-05-29T10:37:40;101338.22;;;17.54;49.72
74633;BME280;63139;52.018;8.552;2023-05-29T10:40:11;101343.78;;;17.52;49.24
74633;BME280;63139;52.018;8.552;2023-05-29T10:42:44;101346.31;;;17.60;50.03
74633;BME280;63139;52.018;8.552;2023-05-29T10:48:39;101345.03;;;17.56;48.93
74633;BME280;63139;52.018;8.552;2023-05-29T10:51:24;101344.97;;;17.50;47.38
74633;BME280;63139;52.018;8.552;2023-05-29T10:53:53;101338.97;;;17.62;49.11
74633;BME280;63139;52.018;8.552;2023-05-29T10:56:22;101323.13;;;17.67;49.03
74633;BME280;63139;52.018;8.552;2023-05-29T10:58:54;101323.78;;;17.69;48.66
74633;BME280;63139;52.018;8.552;2023-05-29T11:01:24;101333.66;;;17.69;48.92
74633;BME280;63139;52.018;8.552;2023-05-29T11:03:54;101324.34;;;17.65;48.09
74633;BME280;63139;52.018;8.552;2023-05-29T11:06:43;101332.84;;;17.68;49.64
74633;BME280;63139;52.018;8.552;2023-05-29T11:09:26;101324.66;;;17.76;48.94
74633;BME280;63139;52.018;8.552;2023-05-29T11:12:14;101321.34;;;17.74;49.15
74633;BME280;63139;52.018;8.552;2023-05-29T11:14:54;101318.13;;;17.86;49.72
74633;BME280;63139;52.018;8.552;2023-05-29T11:17:34;101325.06;;;17.80;48.99
74633;BME280;63139;52.018;8.552;2023-05-29T11:20:17;101315.19;;;17.80;49.26
74633;BME280;63139;52.018;8.552;2023-05-29T11:23:02;101311.81;;;17.93;49.57
74633;BME280;63139;52.018;8.552;2023-05-29T11:25:33;101313.44;;;17.94;48.80
74633;BME280;63139;52.018;8.552;2023-05-29T11:28:03;101311.41;;;17.68;49.68
74633;BME280;63139;52.018;8.552;2023-05-29T11:30:44;101309.84;;;17.80;49.16
74633;BME280;63139;52.018;8.552;2023-05-29T11:33:22;101312.00;;;17.92;49.29
74633;BME280;63139;52.018;8.552;2023-05-29T11:35:56;101312.22;;;17.97;49.08
74633;BME280;63139;52.018;8.552;2023-05-29T11:38:26;101305.44;;;18.01;49.56
74633;BME280;63139;52.018;8.552;2023-05-29T11:40:54;101318.41;;;17.97;49.49
74633;BME280;63139;52.018;8.552;2023-05-29T11:43:22;101311.41;;;17.96;49.46
74633;BME280;63139;52.018;8.552;2023-05-29T11:45:50;101307.25;;;17.94;49.52
74633;BME280;63139;52.018;8.552;2023-05-29T11:48:18;101305.81;;;17.91;49.33
74633;BME280;63139;52.018;8.552;2023-05-29T11:50:46;101309.31;;;17.92;49.32
74633;BME280;63139;52.018;8.552;2023-05-29T11:53:14;101310.41;;;18.04;49.45
74633;BME280;63139;52.018;8.552;2023-05-29T11:55:43;101298.53;;;18.13;49.49
74633;BME280;63139;52.018;8.552;2023-05-29T11:58:11;101302.41;;;18.10;47.90
74633;BME280;63139;52.018;8.552;2023-05-29T12:00:39;101301.19;;;18.13;48.85
74633;BME280;63139;52.018;8.552;2023-05-29T12:03:08;101308.22;;;18.14;48.67
74633;BME280;63139;52.018;8.552;2023-05-29T12:05:44;101299.56;;;18.18;48.22
74633;BME280;63139;52.018;8.552;2023-05-29T12:08:12;101306.22;;;17.95;48.51
74633;BME280;63139;52.018;8.552;2023-05-29T12:10:47;101297.69;;;18.12;48.40
74633;BME280;63139;52.018;8.552;2023-05-29T12:13:18;101295.50;;;18.22;48.50
74633;BME280;63139;52.018;8.552;2023-05-29T12:15:47;101302.44;;;18.17;47.66
74633;BME280;63139;52.018;8.552;2023-05-29T12:18:17;101302.69;;;18.22;48.87
74633;BME280;63139;52.018;8.552;2023-05-29T12:20:45;101304.41;;;18.30;48.29
74633;BME280;63139;52.018;8.552;2023-05-29T12:23:13;101297.41;;;18.35;47.99
74633;BME280;63139;52.018;8.552;2023-05-29T12:25:41;101298.25;;;18.42;47.31
74633;BME280;63139;52.018;8.552;2023-05-29T12:28:15;101294.97;;;18.47;47.96
74633;BME280;63139;52.018;8.552;2023-05-29T12:30:46;101294.44;;;18.58;47.85
74633;BME280;63139;52.018;8.552;2023-05-29T12:33:28;101295.81;;;18.47;47.68
74633;BME280;63139;52.018;8.552;2023-05-29T12:36:04;101293.09;;;18.41;47.21
74633;BME280;63139;52.018;8.552;2023-05-29T12:38:32;101282.00;;;18.50;47.54
74633;BME280;63139;52.018;8.552;2023-05-29T12:41:00;101280.84;;;18.59;48.24
74633;BME280;63139;52.018;8.552;2023-05-29T12:43:30;101289.50;;;18.68;48.78
74633;BME280;63139;52.018;8.552;2023-05-29T12:45:58;101282.06;;;18.64;48.13
74633;BME280;63139;52.018;8.552;2023-05-29T12:48:26;101280.22;;;18.64;47.14
74633;BME280;63139;52.018;8.552;2023-05-29T12:50:54;101291.78;;;18.65;47.71
74633;BME280;63139;52.018;8.552;2023-05-29T12:53:28;101293.72;;;18.43;48.38
74633;BME280;63139;52.018;8.552;2023-05-29T12:55:56;101289.03;;;18.51;48.36
74633;BME280;63139;52.018;8.552;2023-05-29T12:58:24;101283.53;;;18.59;48.41
74633;BME280;63139;52.018;8.552;2023-05-29T13:00:54;101283.44;;;18.53;48.16
74633;BME280;63139;52.018;8.552;2023-05-29T13:03:23;101288.44;;;18.56;48.72
74633;BME280;63139;52.018;8.552;2023-05-29T13:05:51;101292.38;;;18.60;48.42
74633;BME280;63139;52.018;8.552;2023-05-29T13:08:21;101292.44;;;18.67;48.05
74633;BME280;63139;52.018;8.552;2023-05-29T13:10:49;101281.88;;;18.65;47.11